createdAt,value
2022-10-19T00:01:52.168Z,4.55
2022-10-19T00:04:21.439Z,4.70
2022-10-19T00:06:50.331Z,4.40
2022-10-19T00:09:21.318Z,5.35
2022-10-19T00:11:52.209Z,5.38
2022-10-19T00:14:26.313Z,4.32
2022-10-19T00:16:58.188Z,4.25
2022-10-19T00:19:29.555Z,4.38
2022-10-19T00:21:58.159Z,4.32
2022-10-19T00:24:27.285Z,4.07
2022-10-19T00:26:55.913Z,4.50
2022-10-19T00:29:26.107Z,4.40
2022-10-19T00:31:57.143Z,5.97
2022-10-19T00:34:26.254Z,4.18
2022-10-19T00:36:57.264Z,3.95
2022-10-19T00:39:25.926Z,4.20
2022-10-19T00:41:54.943Z,4.90
2022-10-19T00:45:12.572Z,4.95
2022-10-19T00:47:44.714Z,6.00
2022-10-19T00:50:17.361Z,5.22
2022-10-19T00:52:46.497Z,4.83
2022-10-19T00:55:15.324Z,5.07
2022-10-19T00:57:46.655Z,6.53
2022-10-19T01:00:15.807Z,4.70
2022-10-19T01:02:45.856Z,4.53
2022-10-19T01:05:15.597Z,5.40
2022-10-19T01:07:46.649Z,4.70
2022-10-19T01:10:25.478Z,4.72
2022-10-19T01:13:08.042Z,4.22
2022-10-19T01:15:45.915Z,4.50
2022-10-19T01:18:23.404Z,4.97
2022-10-19T01:21:17.438Z,4.75
2022-10-19T01:24:45.562Z,4.80
2022-10-19T01:27:42.769Z,4.85
2022-10-19T01:30:18.783Z,4.72
2022-10-19T01:32:59.911Z,5.60
2022-10-19T01:35:37.374Z,4.95
2022-10-19T01:38:21.573Z,5.43
2022-10-19T01:40:58.612Z,4.97
2022-10-19T01:43:37.565Z,5.93
2022-10-19T01:46:14.579Z,6.00
2022-10-19T01:48:50.477Z,6.47
2022-10-19T01:51:24.455Z,5.38
2022-10-19T01:53:58.110Z,4.80
2022-10-19T01:56:29.425Z,4.50
2022-10-19T01:59:02.349Z,5.22
2022-10-19T02:01:36.590Z,3.72
2022-10-19T02:04:06.352Z,2.72
2022-10-19T02:06:36.666Z,2.47
2022-10-19T02:09:17.910Z,2.67
2022-10-19T02:11:53.418Z,2.83
2022-10-19T02:14:30.601Z,3.38
2022-10-19T02:17:06.231Z,2.58
2022-10-19T02:19:37.298Z,2.75
2022-10-19T02:22:06.277Z,2.70
2022-10-19T02:24:35.231Z,4.57
2022-10-19T02:27:06.581Z,2.95
2022-10-19T02:29:37.308Z,3.00
2022-10-19T02:32:08.221Z,2.70
2022-10-19T02:34:38.512Z,2.60
2022-10-19T02:37:08.037Z,2.47
2022-10-19T02:39:39.598Z,2.97
2022-10-19T02:42:13.053Z,2.63
2022-10-19T02:44:48.735Z,2.30
2022-10-19T02:49:50.338Z,2.85
2022-10-19T02:52:21.199Z,3.05
2022-10-19T02:54:52.388Z,2.95
2022-10-19T02:57:23.487Z,3.13
2022-10-19T02:59:52.807Z,3.53
2022-10-19T03:02:23.211Z,3.45
2022-10-19T03:04:51.990Z,3.25
2022-10-19T03:07:22.629Z,3.83
2022-10-19T03:09:51.520Z,4.50
2022-10-19T03:12:22.252Z,4.80
2022-10-19T03:14:53.492Z,4.68
2022-10-19T03:17:26.673Z,4.43
2022-10-19T03:19:55.589Z,5.70
2022-10-19T03:22:24.307Z,5.60
2022-10-19T03:24:57.525Z,4.85
2022-10-19T03:27:27.015Z,6.32
2022-10-19T03:29:58.152Z,6.47
2022-10-19T03:32:30.437Z,6.53
2022-10-19T03:34:59.083Z,6.60
2022-10-19T03:37:30.211Z,6.80
2022-10-19T03:40:01.068Z,6.53
2022-10-19T03:42:32.561Z,7.25
2022-10-19T03:45:04.103Z,6.70
2022-10-19T03:47:34.329Z,7.15
2022-10-19T03:50:05.736Z,6.55
2022-10-19T03:52:34.412Z,6.20
2022-10-19T03:55:05.988Z,6.82
2022-10-19T03:57:34.962Z,5.85
2022-10-19T04:00:04.679Z,6.30
2022-10-19T04:02:41.849Z,5.70
2022-10-19T04:05:10.831Z,4.53
2022-10-19T04:07:39.600Z,4.40
2022-10-19T04:10:09.090Z,5.80
2022-10-19T04:12:40.729Z,5.17
2022-10-19T04:15:10.478Z,4.63
2022-10-19T04:17:39.610Z,5.82
2022-10-19T04:20:11.558Z,4.38
2022-10-19T04:22:40.252Z,4.35
2022-10-19T04:25:12.439Z,4.88
2022-10-19T04:27:41.521Z,4.13
2022-10-19T04:30:10.954Z,3.70
2022-10-19T04:32:39.822Z,3.88
2022-10-19T04:35:10.888Z,3.40
2022-10-19T04:37:40.081Z,3.90
2022-10-19T04:40:15.017Z,3.50
2022-10-19T04:42:44.076Z,3.60
2022-10-19T04:45:13.884Z,4.13
2022-10-19T04:47:46.908Z,3.33
2022-10-19T04:50:17.481Z,3.65
2022-10-19T04:52:46.592Z,4.32
2022-10-19T04:55:15.976Z,4.30
2022-10-19T04:57:44.857Z,3.83
2022-10-19T05:00:15.058Z,4.03
2022-10-19T05:02:44.935Z,3.80
2022-10-19T05:05:13.987Z,4.38
2022-10-19T05:07:46.510Z,3.95
2022-10-19T05:10:19.750Z,3.70
2022-10-19T05:12:48.440Z,4.05
2022-10-19T05:15:17.097Z,3.80
2022-10-19T05:17:46.183Z,3.88
2022-10-19T05:20:17.082Z,3.83
2022-10-19T05:22:47.457Z,3.40
2022-10-19T05:25:18.769Z,3.47
2022-10-19T05:27:52.706Z,3.47
2022-10-19T05:30:21.861Z,4.55
2022-10-19T05:32:50.510Z,5.65
2022-10-19T05:35:22.348Z,11.77
2022-10-19T05:37:56.521Z,12.75
2022-10-19T05:40:25.173Z,11.55
2022-10-19T05:42:56.065Z,6.55
2022-10-19T05:45:27.433Z,5.82
2022-10-19T05:48:00.168Z,4.70
2022-10-19T05:50:28.846Z,4.63
2022-10-19T05:52:59.425Z,4.03
2022-10-19T05:55:28.580Z,4.18
2022-10-19T05:57:57.729Z,4.30
2022-10-19T06:00:29.036Z,5.53
2022-10-19T06:02:59.182Z,4.50
2022-10-19T06:05:28.071Z,5.07
2022-10-19T06:07:56.642Z,4.70
2022-10-19T06:10:26.785Z,5.57
2022-10-19T06:12:58.110Z,5.03
2022-10-19T06:15:26.982Z,5.40
2022-10-19T06:17:55.630Z,5.63
2022-10-19T06:20:24.340Z,5.93
2022-10-19T06:22:52.972Z,5.40
2022-10-19T06:25:21.679Z,5.88
2022-10-19T06:27:51.744Z,5.55
2022-10-19T06:30:20.469Z,6.20
2022-10-19T06:32:52.331Z,8.73
2022-10-19T06:35:23.436Z,5.25
2022-10-19T06:37:52.166Z,5.63
2022-10-19T06:40:20.813Z,5.85
2022-10-19T06:42:49.471Z,5.10
2022-10-19T06:45:19.559Z,4.93
2022-10-19T06:47:48.551Z,5.53
2022-10-19T06:50:17.926Z,4.82
2022-10-19T06:52:46.846Z,5.55
2022-10-19T06:55:17.900Z,4.82
2022-10-19T06:57:46.810Z,5.03
2022-10-19T07:00:19.236Z,4.82
2022-10-19T07:02:47.969Z,5.75
2022-10-19T07:05:17.281Z,4.70
2022-10-19T07:07:46.162Z,5.55
2022-10-19T07:10:14.808Z,4.47
2022-10-19T07:12:43.612Z,5.22
2022-10-19T07:15:12.337Z,4.53
2022-10-19T07:17:42.811Z,5.78
2022-10-19T07:20:13.707Z,4.82
2022-10-19T07:22:45.062Z,4.10
2022-10-19T07:25:14.202Z,4.35
2022-10-19T07:27:43.725Z,4.85
2022-10-19T07:30:12.841Z,4.28
2022-10-19T07:32:46.775Z,4.80
2022-10-19T07:35:16.767Z,5.20
2022-10-19T07:37:45.530Z,4.45
2022-10-19T07:40:16.996Z,5.75
2022-10-19T07:42:48.038Z,6.22
2022-10-19T07:45:19.561Z,7.70
2022-10-19T07:47:49.674Z,6.88
2022-10-19T07:50:18.707Z,5.95
2022-10-19T07:52:50.996Z,5.22
2022-10-19T07:55:21.822Z,4.63
2022-10-19T07:57:53.258Z,5.15
2022-10-19T08:00:25.377Z,5.38
2022-10-19T08:03:31.080Z,5.15
2022-10-19T08:05:47.588Z,3.92
2022-10-19T08:08:16.512Z,3.97
2022-10-19T08:10:47.920Z,4.25
2022-10-19T08:13:17.119Z,5.30
2022-10-19T08:15:45.824Z,6.32
2022-10-19T08:18:16.862Z,3.85
2022-10-19T08:20:45.958Z,4.45
2022-10-19T08:23:15.028Z,4.32
2022-10-19T08:25:44.063Z,3.90
2022-10-19T08:28:15.558Z,4.35
2022-10-19T08:30:46.457Z,4.40
2022-10-19T08:33:19.284Z,4.90
2022-10-19T08:35:50.961Z,4.63
2022-10-19T08:38:19.929Z,3.78
2022-10-19T08:40:49.026Z,3.75
2022-10-19T08:43:22.866Z,2.97
2022-10-19T08:45:59.376Z,3.42
2022-10-19T08:48:32.972Z,3.67
2022-10-19T08:51:04.397Z,3.10
2022-10-19T08:53:41.477Z,2.97
2022-10-19T08:57:01.086Z,3.55
2022-10-19T08:59:31.647Z,3.20
2022-10-19T09:02:11.862Z,3.10
2022-10-19T09:04:46.126Z,3.67
2022-10-19T09:07:25.761Z,2.55
2022-10-19T09:09:58.324Z,3.78
2022-10-19T09:12:36.405Z,3.63
2022-10-19T09:15:08.443Z,2.55
2022-10-19T09:17:39.471Z,2.10
2022-10-19T09:20:19.147Z,2.55
2022-10-19T09:23:01.657Z,3.03
2022-10-19T09:25:32.032Z,2.95
2022-10-19T09:28:31.406Z,3.42
2022-10-19T09:31:14.506Z,2.35
2022-10-19T09:33:52.141Z,2.15
2022-10-19T09:36:39.294Z,1.85
2022-10-19T09:39:14.220Z,2.72
2022-10-19T09:41:48.214Z,1.92
2022-10-19T09:44:19.997Z,2.33
2022-10-19T09:46:56.579Z,2.85
2022-10-19T09:49:41.906Z,2.15
2022-10-19T09:52:39.337Z,1.92
2022-10-19T09:55:22.814Z,2.70
2022-10-19T10:00:34.758Z,2.33
2022-10-19T10:03:03.423Z,2.05
2022-10-19T10:05:34.952Z,2.13
2022-10-19T10:08:17.935Z,2.10
2022-10-19T10:10:49.179Z,1.85
2022-10-19T10:13:20.156Z,2.03
2022-10-19T10:15:52.576Z,2.90
2022-10-19T10:18:21.491Z,2.27
2022-10-19T10:21:04.917Z,1.58
2022-10-19T10:23:37.855Z,2.40
2022-10-19T10:26:18.406Z,1.70
2022-10-19T10:28:51.960Z,1.85
2022-10-19T10:31:24.674Z,1.50
2022-10-19T10:33:56.866Z,1.00
2022-10-19T10:36:30.119Z,2.17
2022-10-19T10:39:06.214Z,2.13
2022-10-19T10:41:40.540Z,2.45
2022-10-19T10:44:18.929Z,1.88
2022-10-19T10:46:56.776Z,1.98
2022-10-19T10:49:31.121Z,1.23
2022-10-19T10:52:05.582Z,2.08
2022-10-19T10:54:35.722Z,1.95
2022-10-19T10:57:13.163Z,1.85
2022-10-19T10:59:50.468Z,4.70
2022-10-19T11:02:29.352Z,3.17
2022-10-19T11:05:03.198Z,1.88
2022-10-19T11:07:36.072Z,1.60
2022-10-19T11:10:21.164Z,1.65
2022-10-19T11:12:57.272Z,2.00
2022-10-19T11:15:34.680Z,1.65
2022-10-19T11:18:15.755Z,2.00
2022-10-19T11:20:52.664Z,1.52
2022-10-19T11:23:33.865Z,2.00
2022-10-19T11:26:17.466Z,2.47
2022-10-19T11:29:00.818Z,2.35
2022-10-19T11:31:41.181Z,2.05
2022-10-19T11:34:27.253Z,1.73
2022-10-19T11:37:03.796Z,2.10
2022-10-19T11:39:47.925Z,1.60
2022-10-19T11:42:31.637Z,1.60
2022-10-19T11:45:07.077Z,1.00
2022-10-19T11:47:53.905Z,1.55
2022-10-19T11:50:33.958Z,1.55
2022-10-19T11:53:13.569Z,3.13
2022-10-19T11:56:14.648Z,2.00
2022-10-19T11:58:56.433Z,2.25
2022-10-19T12:01:38.771Z,1.50
2022-10-19T12:04:29.683Z,1.60
2022-10-19T12:07:07.058Z,1.92
2022-10-19T12:09:47.484Z,1.70
2022-10-19T12:12:26.563Z,1.63
2022-10-19T12:15:06.501Z,1.30
2022-10-19T12:17:38.800Z,1.35
2022-10-19T12:20:19.013Z,1.48
2022-10-19T12:22:50.618Z,2.13
2022-10-19T12:25:21.984Z,1.98
2022-10-19T12:27:51.710Z,1.30
2022-10-19T12:30:24.040Z,1.50
2022-10-19T12:33:07.660Z,1.40
2022-10-19T12:35:53.557Z,1.15
2022-10-19T12:38:30.630Z,1.70
2022-10-19T12:41:06.674Z,3.95
2022-10-19T12:43:46.077Z,1.15
2022-10-19T12:46:28.824Z,1.25
2022-10-19T12:49:35.056Z,2.83
2022-10-19T12:52:04.748Z,1.95
2022-10-19T12:54:35.821Z,1.70
2022-10-19T12:57:23.096Z,1.75
2022-10-19T13:00:01.847Z,1.30
2022-10-19T13:02:34.973Z,2.10
2022-10-19T13:05:04.463Z,1.10
2022-10-19T13:07:36.293Z,1.17
2022-10-19T13:10:09.806Z,1.70
2022-10-19T13:12:47.393Z,1.52
2022-10-19T13:15:51.153Z,7.00
2022-10-19T13:19:08.352Z,6.55
2022-10-19T13:22:05.698Z,1.95
2022-10-19T13:24:38.557Z,2.38
2022-10-19T13:27:28.120Z,1.17
2022-10-19T13:29:57.407Z,1.90
2022-10-19T13:32:44.492Z,1.27
2022-10-19T13:35:32.693Z,1.42
2022-10-19T13:38:28.128Z,2.30
2022-10-19T13:41:14.240Z,1.45
2022-10-19T13:43:54.604Z,1.50
2022-10-19T13:46:35.610Z,1.98
2022-10-19T13:49:33.039Z,2.90
2022-10-19T13:52:24.323Z,1.90
2022-10-19T13:55:18.914Z,1.38
2022-10-19T13:58:04.975Z,1.83
2022-10-19T14:00:46.102Z,1.55
2022-10-19T14:03:36.827Z,1.83
2022-10-19T14:06:16.782Z,1.70
2022-10-19T14:09:06.207Z,2.63
2022-10-19T14:11:40.454Z,1.30
2022-10-19T14:14:21.044Z,1.58
2022-10-19T14:16:57.076Z,1.65
2022-10-19T14:19:30.455Z,1.88
2022-10-19T14:22:02.446Z,1.27
2022-10-19T14:24:33.716Z,2.75
2022-10-19T14:27:07.748Z,1.70
2022-10-19T14:29:46.123Z,4.97
2022-10-19T14:32:15.323Z,2.50
2022-10-19T14:34:45.147Z,2.30
2022-10-19T14:37:18.312Z,1.27
2022-10-19T14:40:00.242Z,1.63
2022-10-19T14:42:39.710Z,1.42
2022-10-19T14:45:15.285Z,2.00
2022-10-19T14:47:59.403Z,1.35
2022-10-19T14:50:35.256Z,2.38
2022-10-19T14:53:19.078Z,2.10
2022-10-19T14:55:49.783Z,1.33
2022-10-19T14:58:24.877Z,1.20
2022-10-19T15:00:54.953Z,1.45
2022-10-19T15:03:27.133Z,1.60
2022-10-19T15:06:02.812Z,1.27
2022-10-19T15:08:40.169Z,1.58
2022-10-19T15:11:21.732Z,2.05
2022-10-19T15:14:01.396Z,1.17
2022-10-19T15:16:33.116Z,2.10
2022-10-19T15:19:06.521Z,2.00
2022-10-19T15:21:37.705Z,2.42
2022-10-19T15:24:22.699Z,1.65
2022-10-19T15:27:01.751Z,2.42
2022-10-19T15:29:38.962Z,1.90
2022-10-19T15:32:15.678Z,1.88
2022-10-19T15:34:47.410Z,2.28
2022-10-19T15:37:21.186Z,2.03
2022-10-19T15:39:51.117Z,1.40
2022-10-19T15:42:24.563Z,1.48
2022-10-19T15:44:57.105Z,1.58
2022-10-19T15:47:27.059Z,1.70
2022-10-19T15:50:01.613Z,1.90
2022-10-19T15:52:33.199Z,1.55
2022-10-19T15:55:02.794Z,1.73
2022-10-19T15:57:34.350Z,1.42
2022-10-19T16:00:14.960Z,1.80
2022-10-19T16:02:44.205Z,1.77
2022-10-19T16:05:15.282Z,1.42
2022-10-19T16:07:43.929Z,1.77
2022-10-19T16:10:20.198Z,1.40
2022-10-19T16:12:48.846Z,1.80
2022-10-19T16:15:23.184Z,1.63
2022-10-19T16:17:55.934Z,1.77
2022-10-19T16:20:25.819Z,1.40
2022-10-19T16:22:57.306Z,1.13
2022-10-19T16:25:28.862Z,1.80
2022-10-19T16:27:57.992Z,3.33
2022-10-19T16:30:27.943Z,1.20
2022-10-19T16:32:56.587Z,1.52
2022-10-19T16:37:59.048Z,1.70
2022-10-19T16:40:28.554Z,1.92
2022-10-19T16:42:58.837Z,2.55
2022-10-19T16:45:29.820Z,10.38
2022-10-19T16:48:01.133Z,6.40
2022-10-19T16:50:33.190Z,3.13
2022-10-19T16:53:06.750Z,2.55
2022-10-19T16:55:35.455Z,1.77
2022-10-19T16:58:04.394Z,1.80
2022-10-19T17:00:36.519Z,1.60
2022-10-19T17:03:07.633Z,1.85
2022-10-19T17:05:38.908Z,2.00
2022-10-19T17:08:09.238Z,1.60
2022-10-19T17:10:37.961Z,1.63
2022-10-19T17:13:09.044Z,1.63
2022-10-19T17:15:43.488Z,2.20
2022-10-19T17:18:12.327Z,2.08
2022-10-19T17:20:43.823Z,1.88
2022-10-19T17:23:12.710Z,2.10
2022-10-19T17:25:48.097Z,1.52
2022-10-19T17:28:16.771Z,1.75
2022-10-19T17:30:47.696Z,2.30
2022-10-19T17:33:16.388Z,2.13
2022-10-19T17:35:47.787Z,2.15
2022-10-19T17:38:16.797Z,2.63
2022-10-19T17:40:45.902Z,2.95
2022-10-19T17:43:14.787Z,1.90
2022-10-19T17:48:19.112Z,2.72
2022-10-19T17:50:57.667Z,2.25
2022-10-19T17:53:26.603Z,2.50
2022-10-19T17:55:55.703Z,3.20
2022-10-19T17:58:25.007Z,2.88
2022-10-19T18:00:55.335Z,3.08
2022-10-19T18:03:27.191Z,3.63
2022-10-19T18:06:01.231Z,2.90
2022-10-19T18:08:31.447Z,2.85
2022-10-19T18:11:04.561Z,3.23
2022-10-19T18:13:34.493Z,4.13
2022-10-19T18:16:03.992Z,3.35
2022-10-19T18:18:36.297Z,3.45
2022-10-19T18:21:06.262Z,3.40
2022-10-19T18:23:35.923Z,3.65
2022-10-19T18:26:06.193Z,3.92
2022-10-19T18:28:37.467Z,4.28
2022-10-19T18:31:07.724Z,4.88
2022-10-19T18:33:38.500Z,4.63
2022-10-19T18:36:09.678Z,4.30
2022-10-19T18:38:39.096Z,5.78
2022-10-19T18:41:11.662Z,4.28
2022-10-19T18:43:40.547Z,5.10
2022-10-19T18:46:11.912Z,4.75
2022-10-19T18:48:41.891Z,4.07
2022-10-19T18:51:10.507Z,4.15
2022-10-19T18:53:41.650Z,3.88
2022-10-19T18:56:12.977Z,3.72
2022-10-19T18:58:42.311Z,4.40
2022-10-19T19:01:12.709Z,4.43
2022-10-19T19:03:45.464Z,3.65
2022-10-19T19:06:16.226Z,3.85
2022-10-19T19:11:17.662Z,4.55
2022-10-19T19:13:48.929Z,4.05
2022-10-19T19:16:20.909Z,5.10
2022-10-19T19:18:51.314Z,4.90
2022-10-19T19:21:22.346Z,4.18
2022-10-19T19:23:53.300Z,5.40
2022-10-19T19:26:23.324Z,6.40
2022-10-19T19:28:52.710Z,4.65
2022-10-19T19:31:21.404Z,5.60
2022-10-19T19:33:53.522Z,5.05
2022-10-19T19:36:22.614Z,4.38
2022-10-19T19:38:53.844Z,5.07
2022-10-19T19:41:22.500Z,4.82
2022-10-19T19:43:51.651Z,5.13
2022-10-19T19:46:22.749Z,4.20
2022-10-19T19:49:00.209Z,4.70
2022-10-19T19:51:30.482Z,4.53
2022-10-19T19:53:59.487Z,3.90
2022-10-19T19:56:31.137Z,3.25
2022-10-19T19:59:04.457Z,4.18
2022-10-19T20:01:33.732Z,4.13
2022-10-19T20:04:03.890Z,4.22
2022-10-19T20:06:34.950Z,4.35
2022-10-19T20:09:05.113Z,4.47
2022-10-19T20:11:36.217Z,4.03
2022-10-19T20:14:10.947Z,4.13
2022-10-19T20:16:39.588Z,3.97
2022-10-19T20:19:12.181Z,4.10
2022-10-19T20:21:41.455Z,5.50
2022-10-19T20:24:12.741Z,4.40
2022-10-19T20:26:44.089Z,4.28
2022-10-19T20:29:12.734Z,3.83
2022-10-19T20:31:41.849Z,4.43
2022-10-19T20:34:14.841Z,4.10
2022-10-19T20:36:45.488Z,4.45
2022-10-19T20:39:14.088Z,5.00
2022-10-19T20:41:42.691Z,3.78
2022-10-19T20:44:11.318Z,4.38
2022-10-19T20:46:40.212Z,4.03
2022-10-19T20:49:08.722Z,4.25
2022-10-19T20:51:39.555Z,4.18
2022-10-19T20:54:13.542Z,5.03
2022-10-19T20:56:43.811Z,3.63
2022-10-19T20:59:14.714Z,3.85
2022-10-19T21:01:46.912Z,4.65
2022-10-19T21:04:17.223Z,3.58
2022-10-19T21:06:52.182Z,4.40
2022-10-19T21:09:23.337Z,3.92
2022-10-19T21:11:55.069Z,4.28
2022-10-19T21:14:28.530Z,3.80
2022-10-19T21:16:58.361Z,4.47
2022-10-19T21:19:30.920Z,3.80
2022-10-19T21:22:02.859Z,4.30
2022-10-19T21:24:33.457Z,3.67
2022-10-19T21:27:03.877Z,4.05
2022-10-19T21:29:35.502Z,4.30
2022-10-19T21:32:04.521Z,4.20
2022-10-19T21:34:33.268Z,4.13
2022-10-19T21:37:04.012Z,3.95
2022-10-19T21:39:32.672Z,5.20
2022-10-19T21:42:01.251Z,4.70
2022-10-19T21:44:30.091Z,3.75
2022-10-19T21:47:01.328Z,4.22
2022-10-19T21:49:33.232Z,3.53
2022-10-19T21:52:06.325Z,3.90
2022-10-19T21:54:37.033Z,4.75
2022-10-19T21:57:09.085Z,3.55
2022-10-19T21:59:37.805Z,4.38
2022-10-19T22:02:06.437Z,4.07
2022-10-19T22:04:37.696Z,4.47
2022-10-19T22:07:07.908Z,4.35
2022-10-19T22:09:37.223Z,4.22
2022-10-19T22:12:06.155Z,4.45
2022-10-19T22:14:35.297Z,4.70
2022-10-19T22:17:03.935Z,4.07
2022-10-19T22:19:32.587Z,3.95
2022-10-19T22:22:01.476Z,4.70
2022-10-19T22:24:31.451Z,4.57
2022-10-19T22:27:00.055Z,4.55
2022-10-19T22:29:29.154Z,4.57
2022-10-19T22:31:58.108Z,4.15
2022-10-19T22:34:26.801Z,4.85
2022-10-19T22:36:55.378Z,5.30
2022-10-19T22:39:26.969Z,5.32
2022-10-19T22:42:53.684Z,6.07
2022-10-19T22:45:42.239Z,4.93
2022-10-19T22:48:13.419Z,4.30
2022-10-19T22:50:42.138Z,5.30
2022-10-19T22:53:14.237Z,4.68
2022-10-19T22:55:43.183Z,4.60
2022-10-19T22:58:12.567Z,4.75
2022-10-19T23:00:42.950Z,5.07
2022-10-19T23:03:12.396Z,6.15
2022-10-19T23:05:41.031Z,4.22
2022-10-19T23:08:09.723Z,5.38
2022-10-19T23:10:43.470Z,5.55
2022-10-19T23:13:15.197Z,4.88
2022-10-19T23:15:47.568Z,5.25
2022-10-19T23:18:21.014Z,5.75
2022-10-19T23:20:57.340Z,6.20
2022-10-19T23:23:27.240Z,4.75
2022-10-19T23:26:00.337Z,5.60
2022-10-19T23:28:29.741Z,6.88
2022-10-19T23:31:05.166Z,5.70
2022-10-19T23:33:34.277Z,6.00
2022-10-19T23:36:04.476Z,5.18
2022-10-19T23:38:36.260Z,6.55
2022-10-19T23:41:05.242Z,6.85
2022-10-19T23:43:34.110Z,6.53
2022-10-19T23:46:06.878Z,5.97
2022-10-19T23:48:36.494Z,5.75
2022-10-19T23:51:08.516Z,5.75
2022-10-19T23:53:41.072Z,5.50
2022-10-19T23:56:11.964Z,5.85
2022-10-19T23:58:40.693Z,5.80
